Terminal Aerodrome Forecast
Issued by NWS Charleston, WV

Current Version | Previous Version | Graphics & Text | Print | Product List | Glossary On
Versions: 1 2 3 4 5 6 7 8 9 10 11 12 13 14 15 16 17 18 19 20 21 22 23 24 25 26
000
FTUS41 KRLX 021700
TAFCRW
TAF
KCRW 021740Z 0218/0318 31008KT P6SM SCT025 SCT250
     FM022300 33003KT P6SM SCT250
     FM030600 VRB02KT P6SM BKN150
     FM031000 14003KT P6SM OVC050
     FM031500 17005KT 4SM -RA BR OVC020=

USA.gov is the U.S. government's official web portal to all federal, state and local government web resources and services.